Time;durP1;ratioP1;P1;durP2;ratioP2;P2;SDS_P1;SDS_P2;PMS_P1;PMS_P2;Temp;Humidity;BMP_temperature;BMP_pressure;BME280_temperature;BME280_humidity;BME280_pressure;Samples;Min_cycle;Max_cycle;Signal;HPM_P1;HPM_P2
2023/10/28 00:00:58;;;;;;;78.07;32.50;;;9.90;99.90;;;;;;5083516;28;20046;-77
2023/10/28 00:03:24;;;;;;;64.43;29.65;;;9.70;99.90;;;;;;5082318;28;20512;-78
2023/10/28 00:05:50;;;;;;;67.90;29.63;;;9.80;99.90;;;;;;5096786;28;20134;-78
2023/10/28 00:08:16;;;;;;;60.05;29.25;;;9.80;99.90;;;;;;5100155;28;20039;-79
2023/10/28 00:10:42;;;;;;;74.68;30.58;;;9.80;99.90;;;;;;5088224;28;20542;-77
2023/10/28 00:13:08;;;;;;;88.97;35.78;;;9.80;99.90;;;;;;5080810;28;20068;-78
2023/10/28 00:15:35;;;;;;;78.53;33.00;;;9.80;99.90;;;;;;5079232;28;20063;-77
2023/10/28 00:18:00;;;;;;;71.03;31.00;;;9.70;99.90;;;;;;5065065;28;20055;-78
2023/10/28 00:20:29;;;;;;;65.57;29.75;;;9.80;99.90;;;;;;5089306;28;20052;-77
2023/10/28 00:22:58;;;;;;;79.15;30.88;;;9.90;99.90;;;;;;5089301;28;20379;-79
2023/10/28 00:25:28;;;;;;;70.28;29.23;;;9.70;99.90;;;;;;5099781;28;20047;-78
2023/10/28 00:27:55;;;;;;;64.07;28.40;;;9.80;99.90;;;;;;5097536;28;20087;-78
2023/10/28 00:30:24;;;;;;;74.43;30.70;;;9.80;99.90;;;;;;5089972;28;20044;-78
2023/10/28 00:32:58;;;;;;;71.63;30.63;;;9.80;99.90;;;;;;5079203;28;20048;-77
2023/10/28 00:35:24;;;;;;;79.45;31.98;;;9.80;99.90;;;;;;5081541;28;20055;-78
2023/10/28 00:37:50;;;;;;;78.80;31.50;;;9.80;99.90;;;;;;5092779;28;20037;-77
2023/10/28 00:40:17;;;;;;;76.88;32.13;;;10.00;99.90;;;;;;5089998;28;20496;-78
2023/10/28 00:42:45;;;;;;;73.10;31.67;;;9.70;99.90;;;;;;5076189;28;20101;-79
2023/10/28 00:45:13;;;;;;;69.05;29.20;;;9.80;99.90;;;;;;5090398;28;20051;-78
2023/10/28 00:47:42;;;;;;;74.55;32.95;;;9.80;99.90;;;;;;5088216;28;20119;-77
2023/10/28 00:50:10;;;;;;;76.65;34.42;;;9.90;99.90;;;;;;5095978;28;20050;-77
2023/10/28 00:52:41;;;;;;;91.80;35.70;;;9.80;99.90;;;;;;5085210;28;20123;-79
2023/10/28 00:55:10;;;;;;;87.85;36.45;;;9.80;99.90;;;;;;5093250;28;20039;-78
2023/10/28 00:57:41;;;;;;;83.25;35.70;;;9.90;99.90;;;;;;5097427;28;20040;-78
2023/10/28 01:00:07;;;;;;;90.00;36.08;;;9.80;99.90;;;;;;5092663;28;20138;-78
2023/10/28 01:02:35;;;;;;;107.43;40.47;;;9.80;99.90;;;;;;5090639;28;20056;-78
2023/10/28 01:05:02;;;;;;;109.80;41.28;;;9.90;99.90;;;;;;5092214;28;20032;-79
2023/10/28 01:07:28;;;;;;;103.53;40.40;;;9.90;99.90;;;;;;5118061;28;20156;-78
2023/10/28 01:09:55;;;;;;;103.60;41.17;;;9.90;99.90;;;;;;5096152;28;20412;-78
2023/10/28 01:12:23;;;;;;;97.50;40.00;;;10.20;99.90;;;;;;5103285;28;20043;-79
2023/10/28 01:14:50;;;;;;;106.10;41.88;;;9.80;99.90;;;;;;5092614;28;20080;-79
2023/10/28 01:17:16;;;;;;;93.18;40.80;;;9.80;99.90;;;;;;5080804;28;20040;-79
2023/10/28 01:19:42;;;;;;;106.45;43.45;;;9.80;99.90;;;;;;5092767;28;20055;-77
2023/10/28 01:22:08;;;;;;;105.07;42.28;;;9.90;99.90;;;;;;5098450;28;20058;-78
2023/10/28 01:24:35;;;;;;;122.80;44.90;;;9.80;99.90;;;;;;5090826;28;20047;-77
2023/10/28 01:27:02;;;;;;;112.78;44.95;;;9.90;99.90;;;;;;5079376;28;20448;-78
2023/10/28 01:29:32;;;;;;;106.30;45.33;;;9.90;99.90;;;;;;5080630;28;20157;-77
2023/10/28 01:31:58;;;;;;;122.40;47.13;;;10.00;99.90;;;;;;5093816;28;20047;-78
2023/10/28 01:34:24;;;;;;;112.65;45.97;;;9.90;99.90;;;;;;5081448;28;20040;-79
2023/10/28 01:36:50;;;;;;;131.60;50.35;;;10.00;99.90;;;;;;5082385;28;20051;-79
2023/10/28 01:39:15;;;;;;;134.88;49.58;;;10.30;99.90;;;;;;5092659;28;20484;-78
2023/10/28 01:41:42;;;;;;;124.55;49.33;;;10.00;99.90;;;;;;5090596;28;20138;-78
2023/10/28 01:44:08;;;;;;;121.60;49.95;;;10.00;99.90;;;;;;5088062;28;20100;-78
2023/10/28 01:46:34;;;;;;;141.45;52.28;;;9.90;99.90;;;;;;5104681;28;20456;-77
2023/10/28 01:49:00;;;;;;;140.30;51.10;;;10.00;99.90;;;;;;5101678;28;20075;-78
2023/10/28 01:51:26;;;;;;;105.15;47.05;;;9.90;99.90;;;;;;5098042;28;20044;-78
2023/10/28 01:53:52;;;;;;;125.63;48.95;;;9.90;99.90;;;;;;5100704;28;20043;-79
2023/10/28 01:56:18;;;;;;;139.80;52.42;;;9.90;99.90;;;;;;5098409;28;20032;-78
2023/10/28 01:58:43;;;;;;;133.82;50.30;;;10.00;99.90;;;;;;5085636;28;20104;-77
2023/10/28 02:01:09;;;;;;;132.45;50.70;;;10.50;99.90;;;;;;5094229;28;20074;-78
2023/10/28 02:03:35;;;;;;;139.80;52.33;;;10.10;99.90;;;;;;5098098;28;20052;-78
2023/10/28 02:06:01;;;;;;;124.28;49.85;;;10.00;99.90;;;;;;5090397;28;20052;-78
2023/10/28 02:08:26;;;;;;;115.63;48.55;;;10.00;99.90;;;;;;5077972;28;20147;-78
2023/10/28 02:10:52;;;;;;;138.75;52.65;;;10.00;99.90;;;;;;5086450;28;20040;-77
2023/10/28 02:13:18;;;;;;;127.43;50.72;;;10.00;99.90;;;;;;5099184;28;20048;-79
2023/10/28 02:15:47;;;;;;;135.80;50.42;;;10.00;99.90;;;;;;5099707;28;20040;-77
2023/10/28 02:18:12;;;;;;;121.60;50.90;;;10.00;99.90;;;;;;5092823;28;20044;-79
2023/10/28 02:20:39;;;;;;;118.03;50.65;;;10.00;99.90;;;;;;5084286;28;20044;-78
2023/10/28 02:23:08;;;;;;;136.13;50.95;;;10.10;99.90;;;;;;5079188;28;20044;-78
2023/10/28 02:25:36;;;;;;;122.93;51.03;;;10.00;99.90;;;;;;5090506;28;20468;-78
2023/10/28 02:28:02;;;;;;;126.45;50.55;;;10.00;99.90;;;;;;5099639;28;20066;-78
2023/10/28 02:30:28;;;;;;;119.78;51.28;;;10.00;99.90;;;;;;5093212;28;20036;-78
2023/10/28 02:32:54;;;;;;;138.43;50.63;;;10.00;99.90;;;;;;5095689;28;20043;-79
2023/10/28 02:35:20;;;;;;;130.75;51.15;;;10.00;99.90;;;;;;5105680;28;20040;-78
2023/10/28 02:37:46;;;;;;;196.50;59.60;;;10.00;99.90;;;;;;5091114;28;20036;-78
2023/10/28 02:40:12;;;;;;;114.93;49.65;;;10.00;99.90;;;;;;5081437;28;20051;-79
2023/10/28 02:42:38;;;;;;;121.60;49.30;;;10.00;99.90;;;;;;5082439;28;20457;-78
2023/10/28 02:45:07;;;;;;;136.20;51.15;;;10.00;99.90;;;;;;5096006;28;20048;-78
2023/10/28 02:47:33;;;;;;;115.78;48.15;;;10.00;99.90;;;;;;5085656;28;20060;-78
2023/10/28 02:50:00;;;;;;;130.00;50.72;;;9.90;99.90;;;;;;5101098;28;20055;-77
2023/10/28 02:52:26;;;;;;;119.10;48.45;;;9.80;99.90;;;;;;5103601;28;20037;-78
2023/10/28 02:54:52;;;;;;;143.40;51.60;;;9.90;99.90;;;;;;5088152;28;20064;-78
2023/10/28 02:57:18;;;;;;;124.80;50.72;;;10.30;99.90;;;;;;5102537;28;20104;-78
2023/10/28 02:59:44;;;;;;;136.63;50.97;;;9.80;99.90;;;;;;5097718;28;20040;-77
2023/10/28 03:02:10;;;;;;;105.65;46.90;;;9.80;99.90;;;;;;5095361;28;20557;-78
2023/10/28 03:04:36;;;;;;;149.00;54.17;;;9.70;99.90;;;;;;5087952;28;20043;-78
2023/10/28 03:07:01;;;;;;;144.23;52.35;;;9.70;99.90;;;;;;5080268;28;20129;-77
2023/10/28 03:09:27;;;;;;;103.55;46.40;;;9.70;99.90;;;;;;5084516;28;20028;-78
2023/10/28 03:11:53;;;;;;;111.10;47.53;;;9.60;99.90;;;;;;5082113;28;20055;-78
2023/10/28 03:14:19;;;;;;;102.13;45.83;;;9.70;99.90;;;;;;5082818;28;20063;-78
2023/10/28 03:16:46;;;;;;;124.70;49.05;;;9.70;99.90;;;;;;5082105;28;20041;-78
2023/10/28 03:19:12;;;;;;;123.05;48.33;;;9.60;99.90;;;;;;5083068;28;20040;-77
2023/10/28 03:21:38;;;;;;;96.78;44.83;;;9.70;99.90;;;;;;5087019;28;20064;-77
2023/10/28 03:24:04;;;;;;;95.40;44.17;;;9.70;99.90;;;;;;5082190;28;20074;-77
2023/10/28 03:26:32;;;;;;;123.82;49.33;;;9.60;99.90;;;;;;5084210;28;20078;-78
2023/10/28 03:28:59;;;;;;;105.53;45.65;;;9.60;99.90;;;;;;5083837;28;20079;-78
2023/10/28 03:31:26;;;;;;;115.50;47.80;;;10.00;99.90;;;;;;5114935;28;20441;-77
2023/10/28 03:33:51;;;;;;;105.50;45.80;;;9.60;99.90;;;;;;5084791;28;20039;-78
2023/10/28 03:36:17;;;;;;;101.40;44.38;;;9.60;99.90;;;;;;5098844;28;20032;-77
2023/10/28 03:38:43;;;;;;;96.07;44.15;;;9.60;99.90;;;;;;5100313;28;20044;-78
2023/10/28 03:41:12;;;;;;;94.80;43.35;;;9.60;99.90;;;;;;5082282;28;20041;-78
2023/10/28 03:43:39;;;;;;;97.90;43.28;;;9.60;99.90;;;;;;5061594;28;20047;-77
2023/10/28 03:46:04;;;;;;;85.13;40.28;;;9.50;99.90;;;;;;5075574;28;20118;-78
2023/10/28 03:48:31;;;;;;;106.15;45.33;;;9.50;99.90;;;;;;5098280;28;20477;-77
2023/10/28 03:51:02;;;;;;;94.68;42.70;;;9.50;99.90;;;;;;5083948;28;20040;-78
2023/10/28 03:53:28;;;;;;;87.32;40.78;;;9.50;99.90;;;;;;5089282;28;20508;-77
2023/10/28 03:55:54;;;;;;;129.43;47.63;;;9.50;99.90;;;;;;5092605;28;20076;-77
2023/10/28 03:58:22;;;;;;;84.80;40.25;;;9.50;99.90;;;;;;5079590;28;20418;-78
2023/10/28 04:00:53;;;;;;;;;;;9.60;99.90;;;;;;5099102;28;20044;-78
2023/10/28 04:03:22;;;;;;;95.10;42.80;;;9.50;99.90;;;;;;5083107;28;19920;-77
2023/10/28 04:05:51;;;;;;;100.38;42.50;;;9.50;99.90;;;;;;5091652;28;20062;-78
2023/10/28 04:08:17;;;;;;;100.45;45.10;;;9.50;99.90;;;;;;5101003;28;20096;-78
2023/10/28 04:10:42;;;;;;;107.38;45.25;;;9.50;99.90;;;;;;5090359;28;20474;-76
2023/10/28 04:13:08;;;;;;;95.47;42.15;;;9.50;99.90;;;;;;5105584;28;20114;-77
2023/10/28 04:15:37;;;;;;;98.82;44.70;;;9.50;99.90;;;;;;5106638;28;20528;-78
2023/10/28 04:18:02;;;;;;;82.82;39.67;;;9.50;99.90;;;;;;5105740;28;20044;-77
2023/10/28 04:20:31;;;;;;;103.90;43.08;;;9.50;99.90;;;;;;5100575;28;20080;-77
2023/10/28 04:22:57;;;;;;;96.25;42.85;;;9.50;99.90;;;;;;5082894;28;20037;-77
2023/10/28 04:25:23;;;;;;;88.82;42.35;;;9.60;99.90;;;;;;5090290;28;20454;-77
2023/10/28 04:27:49;;;;;;;68.97;36.35;;;9.60;99.90;;;;;;5093501;28;20076;-77
2023/10/28 04:30:15;;;;;;;77.95;39.75;;;9.60;99.90;;;;;;5077355;28;20044;-78
2023/10/28 04:32:42;;;;;;;89.47;41.15;;;9.50;99.90;;;;;;5073633;28;20135;-77
2023/10/28 04:35:10;;;;;;;92.18;41.97;;;9.60;99.90;;;;;;5080870;28;20045;-77
2023/10/28 04:37:36;;;;;;;86.80;43.13;;;9.50;99.90;;;;;;5092784;28;20374;-78
2023/10/28 04:40:05;;;;;;;90.70;41.28;;;9.60;99.90;;;;;;5096162;28;20047;-79
2023/10/28 04:42:31;;;;;;;91.38;42.83;;;9.40;99.90;;;;;;5100091;28;20040;-77
2023/10/28 04:44:57;;;;;;;90.45;41.40;;;9.50;99.90;;;;;;5091181;28;20071;-78
2023/10/28 04:47:24;;;;;;;84.03;42.35;;;9.50;99.90;;;;;;5087231;28;20100;-79
2023/10/28 04:49:50;;;;;;;110.80;45.58;;;9.50;99.90;;;;;;5084638;28;20043;-77
2023/10/28 04:52:16;;;;;;;84.13;41.92;;;9.50;99.90;;;;;;5094634;28;20040;-77
2023/10/28 04:54:41;;;;;;;74.53;39.13;;;9.50;99.90;;;;;;5086477;28;20043;-78
2023/10/28 04:57:09;;;;;;;90.88;42.92;;;9.80;99.90;;;;;;5117742;28;20074;-78
2023/10/28 04:59:34;;;;;;;88.35;41.22;;;9.50;99.90;;;;;;5084079;28;20051;-77
2023/10/28 05:02:00;;;;;;;94.80;43.65;;;9.50;99.90;;;;;;5099010;28;20334;-78
2023/10/28 05:04:27;;;;;;;67.85;37.88;;;9.40;99.90;;;;;;5097566;28;20048;-78
2023/10/28 05:06:53;;;;;;;97.43;44.10;;;9.50;99.90;;;;;;5092732;28;20037;-78
2023/10/28 05:09:20;;;;;;;85.82;41.17;;;9.50;99.90;;;;;;5078658;28;20123;-78
2023/10/28 05:11:58;;;;;;;80.95;40.65;;;9.60;99.90;;;;;;5094237;28;20080;-77
2023/10/28 05:14:25;;;;;;;82.05;36.33;;;9.60;99.90;;;;;;5086534;28;20041;-78
2023/10/28 05:16:52;;;;;;;103.45;43.45;;;9.50;99.90;;;;;;5081343;28;20108;-78
2023/10/28 05:19:21;;;;;;;87.13;37.97;;;10.10;99.90;;;;;;5087174;28;20056;-78
2023/10/28 05:21:47;;;;;;;71.50;38.10;;;9.50;99.90;;;;;;5095390;28;20128;-78
2023/10/28 05:24:13;;;;;;;78.30;39.42;;;9.50;99.90;;;;;;5079662;28;20059;-78
2023/10/28 05:26:39;;;;;;;89.70;42.78;;;9.60;99.90;;;;;;5090840;28;20047;-78
2023/10/28 05:29:06;;;;;;;96.18;44.30;;;9.60;99.90;;;;;;5095446;28;20096;-78
2023/10/28 05:31:32;;;;;;;92.82;42.28;;;9.60;99.90;;;;;;5097468;28;20048;-78
2023/10/28 05:33:58;;;;;;;91.57;42.10;;;9.60;99.90;;;;;;5080189;28;20421;-79
2023/10/28 05:36:23;;;;;;;87.72;41.47;;;9.60;99.90;;;;;;5094739;28;20048;-78
2023/10/28 05:38:49;;;;;;;99.80;44.00;;;9.60;99.90;;;;;;5098410;28;20044;-78
2023/10/28 05:41:15;;;;;;;102.22;43.25;;;9.60;99.90;;;;;;5099009;28;20059;-77
2023/10/28 05:43:40;;;;;;;82.88;38.22;;;9.60;99.90;;;;;;5097631;28;20040;-77
2023/10/28 05:46:06;;;;;;;92.13;43.13;;;9.60;99.90;;;;;;5066153;28;20092;-78
2023/10/28 05:48:35;;;;;;;93.45;42.95;;;9.70;99.90;;;;;;5099677;28;20040;-77
2023/10/28 05:51:02;;;;;;;78.78;40.08;;;9.60;99.90;;;;;;5065664;28;20048;-78
2023/10/28 05:53:28;;;;;;;91.70;40.10;;;9.60;99.90;;;;;;5089401;28;20052;-78
2023/10/28 05:55:54;;;;;;;80.28;39.75;;;9.80;99.90;;;;;;5093729;28;20503;-77
2023/10/28 05:58:20;;;;;;;100.05;43.70;;;9.60;99.90;;;;;;5086531;28;20044;-77
2023/10/28 06:00:45;;;;;;;77.97;38.80;;;9.60;99.90;;;;;;5085159;28;20132;-78
2023/10/28 06:03:12;;;;;;;87.15;40.67;;;9.70;99.90;;;;;;5085038;28;20514;-79
2023/10/28 06:05:38;;;;;;;82.78;40.35;;;9.60;99.90;;;;;;5075189;28;20044;-77
2023/10/28 06:08:03;;;;;;;82.00;38.83;;;9.70;99.90;;;;;;5103877;28;20043;-78
2023/10/28 06:10:29;;;;;;;81.72;39.47;;;9.70;99.90;;;;;;5085828;28;20041;-78
2023/10/28 06:12:55;;;;;;;85.68;41.22;;;9.70;99.90;;;;;;5105899;28;20055;-77
2023/10/28 06:15:20;;;;;;;90.40;41.10;;;9.70;99.90;;;;;;5105640;28;20040;-78
2023/10/28 06:17:49;;;;;;;78.85;39.00;;;9.60;99.90;;;;;;5104150;28;20051;-78
2023/10/28 06:20:14;;;;;;;76.15;37.53;;;9.70;99.90;;;;;;5099349;28;20032;-78
2023/10/28 06:22:42;;;;;;;85.65;40.28;;;9.70;99.90;;;;;;5092671;28;20040;-78
2023/10/28 06:25:07;;;;;;;80.75;36.10;;;9.70;99.90;;;;;;5101871;28;20120;-78
2023/10/28 06:27:33;;;;;;;75.53;35.35;;;9.70;99.90;;;;;;5083427;28;20060;-79
2023/10/28 06:30:00;;;;;;;82.32;38.65;;;9.70;99.90;;;;;;5099896;28;20497;-79
2023/10/28 06:32:29;;;;;;;77.35;37.13;;;9.60;99.90;;;;;;5094033;28;20103;-78
2023/10/28 06:34:58;;;;;;;84.25;39.65;;;9.90;99.90;;;;;;5098813;28;20147;-78
2023/10/28 06:37:23;;;;;;;76.53;37.05;;;9.80;99.90;;;;;;5084622;28;20059;-78
2023/10/28 06:39:49;;;;;;;71.28;34.22;;;9.70;99.90;;;;;;5083815;28;20036;-78
2023/10/28 06:42:15;;;;;;;69.90;34.75;;;9.80;99.90;;;;;;5085083;28;20075;-80
2023/10/28 06:44:43;;;;;;;70.00;34.40;;;9.70;99.90;;;;;;5073136;28;20083;-78
2023/10/28 06:47:09;;;;;;;83.53;37.70;;;9.70;99.90;;;;;;5101865;28;20082;-79
2023/10/28 06:49:35;;;;;;;55.17;32.20;;;10.40;99.90;;;;;;5082537;28;20041;-78
2023/10/28 06:52:04;;;;;;;75.25;35.67;;;9.80;99.90;;;;;;5081335;28;20037;-78
2023/10/28 06:54:30;;;;;;;72.88;34.17;;;9.70;99.90;;;;;;5086416;28;20051;-79
2023/10/28 06:56:56;;;;;;;72.63;34.55;;;9.70;99.90;;;;;;5082762;28;20036;-79
2023/10/28 06:59:23;;;;;;;63.38;33.42;;;10.30;99.90;;;;;;5084447;28;20037;-78
2023/10/28 07:01:49;;;;;;;61.00;30.83;;;9.90;99.90;;;;;;5086157;28;20056;-79
2023/10/28 07:04:15;;;;;;;53.03;29.73;;;9.80;99.90;;;;;;5094114;28;20052;-79
2023/10/28 07:06:41;;;;;;;56.55;29.77;;;9.80;99.90;;;;;;5105561;28;20048;-79
2023/10/28 07:09:07;;;;;;;56.95;30.70;;;9.80;99.90;;;;;;5103131;28;20040;-79
2023/10/28 07:11:33;;;;;;;76.40;33.70;;;9.90;99.90;;;;;;5067055;28;20051;-78
2023/10/28 07:13:58;;;;;;;58.30;29.45;;;9.90;99.90;;;;;;5081015;28;20037;-78
2023/10/28 07:16:24;;;;;;;47.58;27.92;;;9.90;99.90;;;;;;5097229;28;20083;-79
2023/10/28 07:18:49;;;;;;;40.97;25.10;;;10.00;99.90;;;;;;5097801;28;20049;-80
2023/10/28 07:21:15;;;;;;;55.72;26.23;;;9.90;99.90;;;;;;5077379;28;20127;-78
2023/10/28 07:23:44;;;;;;;55.13;28.13;;;10.00;99.90;;;;;;5080169;28;20044;-77
2023/10/28 07:26:12;;;;;;;60.63;28.80;;;9.90;99.90;;;;;;5087940;28;20037;-79
2023/10/28 07:28:39;;;;;;;43.70;25.77;;;10.00;99.90;;;;;;5082056;28;20124;-78
2023/10/28 07:31:06;;;;;;;38.78;22.75;;;9.70;99.90;;;;;;5070548;28;20048;-78
2023/10/28 07:33:31;;;;;;;34.70;19.83;;;10.00;99.90;;;;;;5080503;28;20090;-78
2023/10/28 07:36:01;;;;;;;32.53;18.40;;;10.00;99.90;;;;;;5096148;28;20482;-78
2023/10/28 07:38:27;;;;;;;33.17;18.52;;;10.00;99.90;;;;;;5080181;28;20040;-77
2023/10/28 07:40:53;;;;;;;26.52;17.13;;;10.00;99.90;;;;;;5095996;28;20036;-77
2023/10/28 07:43:21;;;;;;;34.10;18.23;;;10.40;99.90;;;;;;5097377;28;20131;-78
2023/10/28 07:45:47;;;;;;;33.22;17.70;;;10.10;99.90;;;;;;5094807;28;20075;-77
2023/10/28 07:48:14;;;;;;;30.95;17.42;;;10.10;99.90;;;;;;5078046;28;20119;-77
2023/10/28 07:50:40;;;;;;;29.40;16.95;;;10.10;99.90;;;;;;5087947;28;20044;-78
2023/10/28 07:53:06;;;;;;;22.85;16.10;;;10.10;99.90;;;;;;5087629;28;20045;-78
2023/10/28 07:55:38;;;;;;;27.30;16.23;;;10.10;99.90;;;;;;5077132;28;20047;-77
2023/10/28 07:58:05;;;;;;;22.65;15.85;;;10.10;99.90;;;;;;5093790;28;20082;-77
2023/10/28 08:00:37;;;;;;;25.55;16.02;;;10.20;99.90;;;;;;5085759;28;20068;-78
2023/10/28 08:03:03;;;;;;;28.88;17.75;;;10.20;99.90;;;;;;5077219;28;20128;-78
2023/10/28 08:05:29;;;;;;;27.75;16.50;;;10.20;99.90;;;;;;5073981;28;20079;-77
2023/10/28 08:07:55;;;;;;;23.08;14.20;;;10.20;99.90;;;;;;5090755;28;20435;-78
2023/10/28 08:10:24;;;;;;;23.65;13.32;;;10.30;99.90;;;;;;5073770;28;20097;-77
2023/10/28 08:12:51;;;;;;;25.60;15.45;;;10.30;99.90;;;;;;5084822;28;20044;-78
2023/10/28 08:15:24;;;;;;;21.38;13.77;;;10.30;99.90;;;;;;5087068;28;20079;-78
2023/10/28 08:17:53;;;;;;;18.38;12.27;;;10.30;99.90;;;;;;5079249;28;20135;-77
2023/10/28 08:20:18;;;;;;;16.77;11.63;;;10.30;99.90;;;;;;5084925;28;20085;-78
2023/10/28 08:22:45;;;;;;;14.60;10.35;;;10.30;99.90;;;;;;5085942;28;20452;-78
2023/10/28 08:25:15;;;;;;;16.70;10.82;;;10.20;99.90;;;;;;5090236;28;20097;-77
2023/10/28 08:27:42;;;;;;;17.88;11.18;;;10.70;99.90;;;;;;5103862;28;20093;-78
2023/10/28 08:30:08;;;;;;;20.48;13.38;;;10.40;99.90;;;;;;5089488;28;20040;-78
2023/10/28 08:32:35;;;;;;;15.30;11.63;;;10.40;99.90;;;;;;5091251;28;20047;-79
2023/10/28 08:35:06;;;;;;;17.45;10.63;;;10.40;99.90;;;;;;5089986;28;20052;-77
2023/10/28 08:37:34;;;;;;;15.45;11.07;;;10.40;99.90;;;;;;5080646;28;20049;-78
2023/10/28 08:40:00;;;;;;;23.38;13.10;;;10.50;99.90;;;;;;5081277;28;20040;-78
2023/10/28 08:42:25;;;;;;;16.88;11.95;;;10.50;99.90;;;;;;5077688;28;20055;-78
2023/10/28 08:44:52;;;;;;;17.90;11.95;;;10.50;99.90;;;;;;5061713;28;20086;-78
2023/10/28 08:47:23;;;;;;;17.42;11.27;;;10.50;99.90;;;;;;5082373;28;20096;-77
2023/10/28 08:49:51;;;;;;;17.60;11.80;;;10.50;99.90;;;;;;5102847;28;20048;-79
2023/10/28 08:52:19;;;;;;;18.60;11.70;;;10.60;99.90;;;;;;5099137;28;20066;-78
2023/10/28 08:54:45;;;;;;;15.15;11.15;;;10.60;99.90;;;;;;5098272;28;20036;-77
2023/10/28 08:57:11;;;;;;;19.85;12.68;;;10.60;99.90;;;;;;5082325;28;20047;-77
2023/10/28 08:59:37;;;;;;;17.35;11.18;;;10.60;99.90;;;;;;5093151;28;20044;-77
2023/10/28 09:02:08;;;;;;;17.73;10.77;;;10.60;99.90;;;;;;5083681;28;20052;-79
2023/10/28 09:04:34;;;;;;;16.40;10.93;;;10.60;99.90;;;;;;5089696;28;20181;-78
2023/10/28 09:07:01;;;;;;;17.73;11.45;;;10.70;99.90;;;;;;5115324;28;20044;-78
2023/10/28 09:09:27;;;;;;;19.33;12.25;;;10.70;99.90;;;;;;5099106;28;20091;-78
2023/10/28 09:11:59;;;;;;;17.98;11.27;;;10.80;99.90;;;;;;5090288;28;20040;-78
2023/10/28 09:14:26;;;;;;;20.75;12.25;;;10.80;99.90;;;;;;5089780;28;20050;-78
2023/10/28 09:16:51;;;;;;;14.07;10.38;;;10.80;99.90;;;;;;5097353;28;20040;-78
2023/10/28 09:19:19;;;;;;;14.02;9.30;;;10.80;99.90;;;;;;5098507;28;20051;-78
2023/10/28 09:21:49;;;;;;;16.95;9.63;;;10.80;99.90;;;;;;5098587;28;20040;-78
2023/10/28 09:24:17;;;;;;;14.15;9.48;;;10.90;99.90;;;;;;5115353;28;20066;-79
2023/10/28 09:26:43;;;;;;;12.93;9.02;;;10.90;99.90;;;;;;5059198;28;20131;-78
2023/10/28 09:29:09;;;;;;;11.75;8.98;;;11.70;99.90;;;;;;5086220;28;20118;-78
2023/10/28 09:31:37;;;;;;;15.70;9.38;;;11.00;99.90;;;;;;5082450;28;20119;-78
2023/10/28 09:34:04;;;;;;;25.65;13.63;;;11.00;99.90;;;;;;5094874;28;20040;-78
2023/10/28 09:36:29;;;;;;;14.90;8.10;;;11.00;99.90;;;;;;5077842;28;20037;-79
2023/10/28 09:38:55;;;;;;;22.92;10.18;;;11.10;99.90;;;;;;5079726;28;20044;-77
2023/10/28 09:41:22;;;;;;;15.32;8.90;;;11.00;99.90;;;;;;5079224;28;20048;-77
2023/10/28 09:43:47;;;;;;;17.83;9.15;;;11.00;99.90;;;;;;5084446;28;20056;-79
2023/10/28 09:46:20;;;;;;;13.52;8.65;;;11.00;99.90;;;;;;5111445;27;20036;-76
2023/10/28 09:48:48;;;;;;;16.40;8.23;;;11.10;99.90;;;;;;5118012;28;20120;-77
2023/10/28 09:51:23;;;;;;;15.32;7.68;;;11.10;99.90;;;;;;5089181;28;20114;-79
2023/10/28 09:53:56;;;;;;;13.02;7.60;;;11.10;99.90;;;;;;5063623;28;20127;-77
2023/10/28 09:56:30;;;;;;;15.25;7.47;;;11.10;99.90;;;;;;5096221;28;20043;-78
2023/10/28 09:59:04;;;;;;;12.18;7.88;;;11.10;99.90;;;;;;5066137;28;20052;-77
2023/10/28 10:01:36;;;;;;;10.98;7.15;;;11.10;99.90;;;;;;5111775;28;20048;-78
2023/10/28 10:04:23;;;;;;;12.57;7.30;;;11.20;99.90;;;;;;5087282;28;20088;-78
2023/10/28 10:06:50;;;;;;;16.23;8.10;;;11.20;99.90;;;;;;5097068;28;20044;-79
2023/10/28 10:09:19;;;;;;;12.55;7.55;;;11.20;99.90;;;;;;5100145;28;20045;-79
2023/10/28 10:11:45;;;;;;;13.02;7.78;;;11.20;99.90;;;;;;5094886;28;20043;-79
2023/10/28 10:14:13;;;;;;;18.38;8.45;;;11.20;99.90;;;;;;5061131;28;20080;-79
2023/10/28 10:16:59;;;;;;;15.00;7.93;;;11.20;99.90;;;;;;5091262;28;20040;-78
2023/10/28 10:19:35;;;;;;;15.65;7.28;;;11.20;99.90;;;;;;5107427;28;20702;-77
2023/10/28 10:22:08;;;;;;;14.15;7.63;;;11.20;99.90;;;;;;5092879;28;20043;-79
2023/10/28 10:24:34;;;;;;;11.55;7.03;;;11.20;99.90;;;;;;5096616;28;20048;-79
2023/10/28 10:27:10;;;;;;;14.07;7.65;;;11.20;99.90;;;;;;5084061;28;20055;-78
2023/10/28 10:29:42;;;;;;;12.65;6.50;;;11.20;99.90;;;;;;5073680;28;20044;-77
2023/10/28 10:32:18;;;;;;;11.55;6.60;;;11.20;99.90;;;;;;5085647;28;20120;-78
2023/10/28 10:34:45;;;;;;;17.38;10.25;;;11.20;99.90;;;;;;5088927;28;20047;-77
2023/10/28 10:37:24;;;;;;;14.27;7.73;;;11.20;99.90;;;;;;5077106;28;20036;-79
2023/10/28 10:39:51;;;;;;;15.52;7.38;;;11.10;99.90;;;;;;5068440;28;20097;-77
2023/10/28 10:42:17;;;;;;;15.25;6.60;;;11.20;99.90;;;;;;5081597;28;20049;-79
2023/10/28 10:44:43;;;;;;;12.10;6.25;;;11.10;99.90;;;;;;5075020;28;20505;-77
2023/10/28 10:47:09;;;;;;;11.82;6.30;;;11.20;99.90;;;;;;5086457;28;20045;-79
2023/10/28 10:49:38;;;;;;;12.98;6.57;;;11.20;99.90;;;;;;5096380;28;20042;-77
2023/10/28 10:52:04;;;;;;;13.80;6.38;;;11.30;99.90;;;;;;5083422;28;20060;-78
2023/10/28 10:54:33;;;;;;;11.18;6.88;;;11.40;99.90;;;;;;5074199;28;20474;-79
2023/10/28 10:56:59;;;;;;;16.48;6.05;;;11.60;99.90;;;;;;5088802;28;20138;-77
2023/10/28 10:59:33;;;;;;;11.65;5.72;;;11.40;99.90;;;;;;5075907;28;20055;-79
2023/10/28 11:02:03;;;;;;;15.02;6.30;;;11.50;99.90;;;;;;5083839;28;20048;-78
2023/10/28 11:04:30;;;;;;;13.55;6.38;;;11.50;99.90;;;;;;5078846;28;20497;-78
2023/10/28 11:06:56;;;;;;;15.07;5.80;;;11.50;99.90;;;;;;5074965;28;20040;-77
2023/10/28 11:09:23;;;;;;;14.40;6.25;;;11.50;99.90;;;;;;5075492;28;20040;-77
2023/10/28 11:11:49;;;;;;;12.45;5.75;;;11.50;99.90;;;;;;5074428;28;20079;-77
2023/10/28 11:14:16;;;;;;;10.13;5.35;;;11.60;99.90;;;;;;5076014;28;20504;-78
2023/10/28 11:16:43;;;;;;;13.50;6.15;;;11.50;99.90;;;;;;5091529;28;20044;-77
2023/10/28 11:19:09;;;;;;;14.60;5.97;;;11.60;99.90;;;;;;5073558;28;20362;-78
2023/10/28 11:21:36;;;;;;;12.13;5.95;;;11.60;99.90;;;;;;5077765;28;20036;-78
2023/10/28 11:24:04;;;;;;;12.77;5.75;;;11.60;99.90;;;;;;5076208;28;20051;-78
2023/10/28 11:26:30;;;;;;;;;;;11.60;99.90;;;;;;5085207;28;20052;-77
2023/10/28 11:29:00;;;;;;;13.02;6.18;;;11.60;99.90;;;;;;5074473;28;20246;-78
2023/10/28 11:31:30;;;;;;;14.38;6.22;;;11.60;99.90;;;;;;5094579;28;20079;-78
2023/10/28 11:34:00;;;;;;;12.70;5.70;;;11.70;99.90;;;;;;5094737;28;20040;-78
2023/10/28 11:36:26;;;;;;;14.65;6.05;;;11.60;99.90;;;;;;5085477;28;20389;-77
2023/10/28 11:38:55;;;;;;;12.00;6.07;;;12.20;99.90;;;;;;5086127;28;20056;-77
2023/10/28 11:41:22;;;;;;;16.23;6.20;;;12.00;99.90;;;;;;5086124;28;20040;-77
2023/10/28 11:43:49;;;;;;;12.98;6.65;;;11.60;99.90;;;;;;5075703;28;20445;-77
2023/10/28 11:46:16;;;;;;;12.30;5.72;;;11.60;99.90;;;;;;5093795;28;20090;-76
2023/10/28 11:48:45;;;;;;;15.45;6.45;;;11.70;99.90;;;;;;5102090;28;20498;-78
2023/10/28 11:51:12;;;;;;;12.10;7.00;;;11.60;99.90;;;;;;5110881;28;20474;-77
2023/10/28 11:53:44;;;;;;;18.65;7.32;;;11.70;99.90;;;;;;5092296;28;20081;-77
2023/10/28 11:56:10;;;;;;;14.52;5.78;;;11.70;99.90;;;;;;5062682;28;20048;-77
2023/10/28 11:58:38;;;;;;;13.75;5.50;;;11.80;99.90;;;;;;5102914;28;20063;-78
2023/10/28 12:01:04;;;;;;;12.98;5.20;;;11.80;99.90;;;;;;5098285;28;20044;-77
2023/10/28 12:03:30;;;;;;;12.93;6.10;;;11.80;99.90;;;;;;5091254;28;20405;-78
2023/10/28 12:05:56;;;;;;;15.45;5.88;;;11.80;99.90;;;;;;5113083;28;20040;-77
2023/10/28 12:08:22;;;;;;;11.05;4.90;;;11.90;99.90;;;;;;5091862;28;20064;-76
2023/10/28 12:10:48;;;;;;;14.27;6.13;;;11.90;99.90;;;;;;5071488;28;20100;-78
2023/10/28 12:13:14;;;;;;;10.95;4.88;;;11.90;99.90;;;;;;5097718;28;20063;-78
2023/10/28 12:15:41;;;;;;;15.55;5.13;;;11.90;99.90;;;;;;5082954;28;20047;-78
2023/10/28 12:18:07;;;;;;;10.50;4.57;;;11.90;99.90;;;;;;5079534;28;20784;-77
2023/10/28 12:20:34;;;;;;;9.68;4.30;;;11.90;99.90;;;;;;5094466;28;20051;-78
2023/10/28 12:23:00;;;;;;;10.63;4.67;;;11.90;99.90;;;;;;5079389;28;20050;-78
2023/10/28 12:25:26;;;;;;;8.07;4.28;;;11.90;99.90;;;;;;5097065;28;20484;-77
2023/10/28 12:27:52;;;;;;;14.05;4.60;;;11.90;99.90;;;;;;5076593;28;20063;-77
2023/10/28 12:30:21;;;;;;;14.10;5.13;;;11.90;99.90;;;;;;5088244;28;20105;-79
2023/10/28 12:32:50;;;;;;;10.35;6.40;;;11.80;99.90;;;;;;5082076;28;20048;-79